createdAt,value
2023-05-16T00:00:40.583Z,16.30
2023-05-16T00:03:07.562Z,16.83
2023-05-16T00:05:34.463Z,12.02
2023-05-16T00:08:01.375Z,13.63
2023-05-16T00:10:28.520Z,17.63
2023-05-16T00:12:56.297Z,14.13
2023-05-16T00:15:25.080Z,16.45
2023-05-16T00:17:52.072Z,12.45
2023-05-16T00:20:23.370Z,16.77
2023-05-16T00:22:51.105Z,18.30
2023-05-16T00:25:18.402Z,24.73
2023-05-16T00:27:45.554Z,22.88
2023-05-16T00:30:12.772Z,15.90
2023-05-16T00:32:39.807Z,18.42
2023-05-16T00:35:10.514Z,11.88
2023-05-16T00:37:38.703Z,18.35
2023-05-16T00:40:06.116Z,12.65
2023-05-16T00:42:33.022Z,19.58
2023-05-16T00:45:00.325Z,12.73
2023-05-16T00:47:28.695Z,10.70
2023-05-16T00:49:55.703Z,17.95
2023-05-16T00:52:23.047Z,12.35
2023-05-16T00:54:51.088Z,15.93
2023-05-16T00:57:18.459Z,17.35
2023-05-16T00:59:46.838Z,13.05
2023-05-16T01:02:14.541Z,13.50
2023-05-16T01:04:42.891Z,14.02
2023-05-16T01:07:09.793Z,20.38
2023-05-16T01:09:37.254Z,12.38
2023-05-16T01:12:35.258Z,9.77
2023-05-16T01:15:22.576Z,11.90
2023-05-16T01:18:19.297Z,10.13
2023-05-16T01:20:55.850Z,17.95
2023-05-16T01:24:03.732Z,12.77
2023-05-16T01:26:32.251Z,12.07
2023-05-16T01:29:00.994Z,17.10
2023-05-16T01:31:28.859Z,11.98
2023-05-16T01:33:58.302Z,11.30
2023-05-16T01:36:28.185Z,19.48
2023-05-16T01:39:22.517Z,9.20
2023-05-16T01:42:01.209Z,14.48
2023-05-16T01:44:52.632Z,12.52
2023-05-16T01:47:22.569Z,15.65
2023-05-16T01:50:09.219Z,14.43
2023-05-16T01:52:41.174Z,13.57
2023-05-16T01:55:12.218Z,18.02
2023-05-16T01:57:40.307Z,15.70
2023-05-16T02:00:08.616Z,18.08
2023-05-16T02:02:41.182Z,12.93
2023-05-16T02:05:09.296Z,16.05
2023-05-16T02:07:36.865Z,19.25
2023-05-16T02:10:04.937Z,12.27
2023-05-16T02:12:35.419Z,16.58
2023-05-16T02:15:02.402Z,12.85
2023-05-16T02:17:32.183Z,13.18
2023-05-16T02:20:06.843Z,10.70
2023-05-16T02:22:34.062Z,13.75
2023-05-16T02:25:02.540Z,15.43
2023-05-16T02:27:32.516Z,16.40
2023-05-16T02:29:59.535Z,11.65
2023-05-16T02:32:26.652Z,17.30
2023-05-16T02:34:53.638Z,12.50
2023-05-16T02:37:20.526Z,19.63
2023-05-16T02:39:49.584Z,12.77
2023-05-16T02:42:16.623Z,15.30
2023-05-16T02:44:43.521Z,19.40
2023-05-16T02:47:10.289Z,8.95
2023-05-16T02:49:37.018Z,10.30
2023-05-16T02:52:04.149Z,15.27
2023-05-16T02:54:30.968Z,9.07
2023-05-16T02:56:57.782Z,10.55
2023-05-16T02:59:24.578Z,11.13
2023-05-16T03:01:51.514Z,13.18
2023-05-16T03:04:18.542Z,13.18
2023-05-16T03:06:45.332Z,13.15
2023-05-16T03:09:12.230Z,12.50
2023-05-16T03:11:39.116Z,9.25
2023-05-16T03:14:05.994Z,14.15
2023-05-16T03:16:33.038Z,12.35
2023-05-16T03:18:59.961Z,14.30
2023-05-16T03:21:27.369Z,18.00
2023-05-16T03:23:55.112Z,15.25
2023-05-16T03:26:22.813Z,14.73
2023-05-16T03:28:51.899Z,19.80
2023-05-16T03:31:18.780Z,12.20
2023-05-16T03:33:45.692Z,18.40
2023-05-16T03:36:12.721Z,13.10
2023-05-16T03:38:39.626Z,16.75
2023-05-16T03:41:06.479Z,14.95
2023-05-16T03:43:33.298Z,16.70
2023-05-16T03:46:02.356Z,14.85
2023-05-16T03:48:29.532Z,12.27
2023-05-16T03:50:56.443Z,8.68
2023-05-16T03:53:23.277Z,19.00
2023-05-16T03:55:50.040Z,16.40
2023-05-16T03:58:17.010Z,11.88
2023-05-16T04:00:45.631Z,13.43
2023-05-16T04:03:16.460Z,18.75
2023-05-16T04:05:43.431Z,11.68
2023-05-16T04:08:10.340Z,15.52
2023-05-16T04:10:37.075Z,11.63
2023-05-16T04:13:04.122Z,11.35
2023-05-16T04:15:31.056Z,13.60
2023-05-16T04:17:57.985Z,17.65
2023-05-16T04:20:24.733Z,12.55
2023-05-16T04:22:51.984Z,17.45
2023-05-16T04:25:18.882Z,22.00
2023-05-16T04:27:45.837Z,13.00
2023-05-16T04:30:14.158Z,9.23
2023-05-16T04:32:41.160Z,18.23
2023-05-16T04:35:09.247Z,13.32
2023-05-16T04:37:36.289Z,8.07
2023-05-16T04:40:03.366Z,16.40
2023-05-16T04:42:30.164Z,18.30
2023-05-16T04:44:57.356Z,9.38
2023-05-16T04:47:24.116Z,7.50
2023-05-16T04:49:51.135Z,16.95
2023-05-16T04:52:17.919Z,10.65
2023-05-16T04:54:44.761Z,14.10
2023-05-16T04:57:11.512Z,14.68
2023-05-16T04:59:38.579Z,12.80
2023-05-16T05:02:05.889Z,17.73
2023-05-16T05:04:32.984Z,7.28
2023-05-16T05:06:59.984Z,17.08
2023-05-16T05:09:27.085Z,10.52
2023-05-16T05:11:53.932Z,11.80
2023-05-16T05:14:21.717Z,11.55
2023-05-16T05:16:48.604Z,10.85
2023-05-16T05:19:16.169Z,10.38
2023-05-16T05:21:43.124Z,16.38
2023-05-16T05:24:10.433Z,12.85
2023-05-16T05:26:37.500Z,10.80
2023-05-16T05:29:06.038Z,13.13
2023-05-16T05:31:35.968Z,10.52
2023-05-16T05:34:03.650Z,7.43
2023-05-16T05:36:31.045Z,11.55
2023-05-16T05:38:57.922Z,12.98
2023-05-16T05:41:24.707Z,14.20
2023-05-16T05:43:52.286Z,16.98
2023-05-16T05:46:21.943Z,10.10
2023-05-16T05:48:49.388Z,9.70
2023-05-16T05:51:16.337Z,7.80
2023-05-16T05:53:45.658Z,12.85
2023-05-16T05:56:12.852Z,13.52
2023-05-16T05:58:41.918Z,9.23
2023-05-16T06:01:08.831Z,13.80
2023-05-16T06:03:35.791Z,8.63
2023-05-16T06:06:02.754Z,18.88
2023-05-16T06:08:29.863Z,12.20
2023-05-16T06:10:56.701Z,9.93
2023-05-16T06:13:23.571Z,8.02
2023-05-16T06:15:54.124Z,6.18
2023-05-16T06:18:21.779Z,12.40
2023-05-16T06:20:48.804Z,8.02
2023-05-16T06:23:15.830Z,10.35
2023-05-16T06:25:42.775Z,10.45
2023-05-16T06:28:10.508Z,10.52
2023-05-16T06:30:37.304Z,8.95
2023-05-16T06:33:04.050Z,12.70
2023-05-16T06:35:30.953Z,13.20
2023-05-16T06:37:57.786Z,11.90
2023-05-16T06:40:24.815Z,6.85
2023-05-16T06:42:54.782Z,9.70
2023-05-16T06:45:22.430Z,11.52
2023-05-16T06:47:49.464Z,10.13
2023-05-16T06:50:16.406Z,13.90
2023-05-16T06:52:43.384Z,8.98
2023-05-16T06:55:10.693Z,12.02
2023-05-16T06:57:37.509Z,9.20
2023-05-16T07:00:04.844Z,4.22
2023-05-16T07:02:32.097Z,5.57
2023-05-16T07:04:59.090Z,11.05
2023-05-16T07:07:26.584Z,8.88
2023-05-16T07:09:56.612Z,8.00
2023-05-16T07:12:23.465Z,6.38
2023-05-16T07:14:50.586Z,8.55
2023-05-16T07:17:17.475Z,5.82
2023-05-16T07:19:44.326Z,6.53
2023-05-16T07:22:12.545Z,7.72
2023-05-16T07:24:39.483Z,8.10
2023-05-16T07:27:06.656Z,5.45
2023-05-16T07:29:33.648Z,5.13
2023-05-16T07:32:00.555Z,7.80
2023-05-16T07:34:27.555Z,7.45
2023-05-16T07:36:54.672Z,6.07
2023-05-16T07:39:21.462Z,3.85
2023-05-16T07:41:48.363Z,5.47
2023-05-16T07:44:15.361Z,3.85
2023-05-16T07:46:44.987Z,9.30
2023-05-16T07:49:12.115Z,7.30
2023-05-16T07:51:38.926Z,7.93
2023-05-16T07:54:05.871Z,3.80
2023-05-16T07:56:32.991Z,4.63
2023-05-16T07:59:00.252Z,10.32
2023-05-16T08:01:29.388Z,3.92
2023-05-16T08:03:56.388Z,7.28
2023-05-16T08:06:23.292Z,4.35
2023-05-16T08:08:50.065Z,4.97
2023-05-16T08:11:16.833Z,4.90
2023-05-16T08:13:43.620Z,8.05
2023-05-16T08:16:11.858Z,9.45
2023-05-16T08:18:39.227Z,9.85
2023-05-16T08:21:06.220Z,6.82
2023-05-16T08:23:33.064Z,6.97
2023-05-16T08:26:00.119Z,6.70
2023-05-16T08:28:26.883Z,5.18
2023-05-16T08:30:54.360Z,7.18
2023-05-16T08:33:21.315Z,6.63
2023-05-16T08:35:49.507Z,10.25
2023-05-16T08:38:16.427Z,11.88
2023-05-16T08:40:43.682Z,9.65
2023-05-16T08:43:10.670Z,7.35
2023-05-16T08:45:37.533Z,7.78
2023-05-16T08:48:08.661Z,8.77
2023-05-16T08:50:37.572Z,2.45
2023-05-16T08:53:07.844Z,10.25
2023-05-16T08:55:36.331Z,5.82
2023-05-16T08:58:04.274Z,4.82
2023-05-16T09:00:31.777Z,7.60
2023-05-16T09:02:59.162Z,8.05
2023-05-16T09:05:27.379Z,5.25
2023-05-16T09:07:54.416Z,7.03
2023-05-16T09:10:21.756Z,9.60
2023-05-16T09:12:49.648Z,7.10
2023-05-16T09:15:19.022Z,7.72
2023-05-16T09:17:47.060Z,5.28
2023-05-16T09:20:20.080Z,4.57
2023-05-16T09:22:55.363Z,5.85
2023-05-16T09:27:59.347Z,3.97
2023-05-16T09:30:30.588Z,8.68
2023-05-16T09:32:58.004Z,4.70
2023-05-16T09:35:42.552Z,6.63
2023-05-16T09:38:16.697Z,5.53
2023-05-16T09:40:44.455Z,6.93
2023-05-16T09:43:23.475Z,2.45
2023-05-16T09:45:55.530Z,5.72
2023-05-16T09:50:53.391Z,10.68
2023-05-16T09:53:31.461Z,9.48
2023-05-16T09:56:05.198Z,7.78
2023-05-16T09:58:33.286Z,6.53
2023-05-16T10:01:00.640Z,6.93
2023-05-16T10:03:28.478Z,4.28
2023-05-16T10:05:56.387Z,4.80
2023-05-16T10:08:25.340Z,3.55
2023-05-16T10:10:56.948Z,7.55
2023-05-16T10:13:28.916Z,5.50
2023-05-16T10:15:57.980Z,6.53
2023-05-16T10:18:32.494Z,6.68
2023-05-16T10:21:06.211Z,3.97
2023-05-16T10:23:34.727Z,5.82
2023-05-16T10:26:04.802Z,3.55
2023-05-16T10:28:32.403Z,5.95
2023-05-16T10:31:01.312Z,3.95
2023-05-16T10:33:28.810Z,4.55
2023-05-16T10:35:57.063Z,6.95
2023-05-16T10:38:25.115Z,7.05
2023-05-16T10:40:52.653Z,8.27
2023-05-16T10:43:30.795Z,7.43
2023-05-16T10:46:04.295Z,5.85
2023-05-16T10:48:33.406Z,5.22
2023-05-16T10:51:02.713Z,6.13
2023-05-16T10:53:36.337Z,4.88
2023-05-16T10:56:03.378Z,4.60
2023-05-16T10:58:44.688Z,10.38
2023-05-16T11:01:22.468Z,4.65
2023-05-16T11:03:58.459Z,4.40
2023-05-16T11:06:26.929Z,8.55
2023-05-16T11:09:11.719Z,4.03
2023-05-16T11:11:49.113Z,6.70
2023-05-16T11:14:23.450Z,4.10
2023-05-16T11:17:21.201Z,3.00
2023-05-16T11:19:52.918Z,7.63
2023-05-16T11:22:19.942Z,4.63
2023-05-16T11:24:55.409Z,4.43
2023-05-16T11:27:45.733Z,4.38
2023-05-16T11:30:18.013Z,3.33
2023-05-16T11:32:46.555Z,5.18
2023-05-16T11:35:15.598Z,4.22
2023-05-16T11:37:43.254Z,4.55
2023-05-16T11:40:12.346Z,5.35
2023-05-16T11:42:41.501Z,3.75
2023-05-16T11:45:16.526Z,3.78
2023-05-16T11:47:47.961Z,7.85
2023-05-16T11:50:20.738Z,4.55
2023-05-16T11:52:50.552Z,4.95
2023-05-16T11:55:28.385Z,4.72
2023-05-16T11:58:06.565Z,4.25
2023-05-16T12:00:33.629Z,6.07
2023-05-16T12:03:05.614Z,3.97
2023-05-16T12:05:34.805Z,3.78
2023-05-16T12:08:02.659Z,5.65
2023-05-16T12:10:34.035Z,3.92
2023-05-16T12:13:01.401Z,7.50
2023-05-16T12:15:28.579Z,7.50
2023-05-16T12:17:56.935Z,6.25
2023-05-16T12:20:26.194Z,5.63
2023-05-16T12:22:53.428Z,4.43
2023-05-16T12:25:29.357Z,6.95
2023-05-16T12:28:00.008Z,10.60
2023-05-16T12:30:28.442Z,5.43
2023-05-16T12:33:15.792Z,5.20
2023-05-16T12:35:45.141Z,7.60
2023-05-16T12:38:14.166Z,5.72
2023-05-16T12:40:42.733Z,5.28
2023-05-16T12:43:16.816Z,5.13
2023-05-16T12:45:58.804Z,9.13
2023-05-16T12:48:37.287Z,4.72
2023-05-16T12:51:19.451Z,3.78
2023-05-16T12:54:01.402Z,7.65
2023-05-16T12:56:45.042Z,6.77
2023-05-16T12:59:15.131Z,4.35
2023-05-16T13:01:42.505Z,3.17
2023-05-16T13:04:09.793Z,5.43
2023-05-16T13:06:55.506Z,7.18
2023-05-16T13:09:24.440Z,5.60
2023-05-16T13:11:54.265Z,6.00
2023-05-16T13:14:21.101Z,7.60
2023-05-16T13:16:48.039Z,5.82
2023-05-16T13:19:14.973Z,7.25
2023-05-16T13:21:41.936Z,5.50
2023-05-16T13:24:08.993Z,6.45
2023-05-16T13:26:35.920Z,7.57
2023-05-16T13:29:02.818Z,7.28
2023-05-16T13:31:32.311Z,7.93
2023-05-16T13:33:59.316Z,7.22
2023-05-16T13:36:26.054Z,8.52
2023-05-16T13:38:52.968Z,5.82
2023-05-16T13:41:19.957Z,5.47
2023-05-16T13:43:46.771Z,3.60
2023-05-16T13:46:13.960Z,5.45
2023-05-16T13:48:42.511Z,5.00
2023-05-16T13:51:10.883Z,6.75
2023-05-16T13:53:39.523Z,7.60
2023-05-16T13:56:07.569Z,6.25
2023-05-16T13:58:43.008Z,5.88
2023-05-16T14:01:19.647Z,5.85
2023-05-16T14:03:46.966Z,5.88
2023-05-16T14:06:13.902Z,5.85
2023-05-16T14:08:40.843Z,3.17
2023-05-16T14:11:07.786Z,7.07
2023-05-16T14:13:34.637Z,7.20
2023-05-16T14:16:02.697Z,6.57
2023-05-16T14:18:29.738Z,6.90
2023-05-16T14:20:56.912Z,6.20
2023-05-16T14:23:24.020Z,4.97
2023-05-16T14:25:51.293Z,9.18
2023-05-16T14:28:18.478Z,3.78
2023-05-16T14:30:47.344Z,4.13
2023-05-16T14:33:15.045Z,4.07
2023-05-16T14:35:42.711Z,5.65
2023-05-16T14:38:10.133Z,4.85
2023-05-16T14:40:37.266Z,9.00
2023-05-16T14:43:04.597Z,11.68
2023-05-16T14:45:31.993Z,7.75
2023-05-16T14:47:59.609Z,7.03
2023-05-16T14:50:29.534Z,6.88
2023-05-16T14:52:56.618Z,5.60
2023-05-16T14:55:24.015Z,7.97
2023-05-16T14:57:57.090Z,10.25
2023-05-16T15:00:26.968Z,4.03
2023-05-16T15:02:54.037Z,4.05
2023-05-16T15:05:22.259Z,6.75
2023-05-16T15:07:50.130Z,3.55
2023-05-16T15:10:20.271Z,4.15
2023-05-16T15:12:48.347Z,6.28
2023-05-16T15:15:16.799Z,3.72
2023-05-16T15:17:50.118Z,4.53
2023-05-16T15:20:17.385Z,3.75
2023-05-16T15:22:44.613Z,4.50
2023-05-16T15:25:13.008Z,2.72
2023-05-16T15:27:39.772Z,6.35
2023-05-16T15:30:08.420Z,4.60
2023-05-16T15:32:35.521Z,7.00
2023-05-16T15:35:02.530Z,5.05
2023-05-16T15:37:29.430Z,3.05
2023-05-16T15:39:56.426Z,4.50
2023-05-16T15:42:23.462Z,4.05
2023-05-16T15:44:50.298Z,2.67
2023-05-16T15:47:17.388Z,5.53
2023-05-16T15:49:44.364Z,4.18
2023-05-16T15:52:11.336Z,6.97
2023-05-16T15:54:38.220Z,7.88
2023-05-16T15:57:05.368Z,6.28
2023-05-16T15:59:32.333Z,3.70
2023-05-16T16:01:59.293Z,4.78
2023-05-16T16:04:26.093Z,3.25
2023-05-16T16:06:52.890Z,5.60
2023-05-16T16:09:19.647Z,6.28
2023-05-16T16:11:46.505Z,3.17
2023-05-16T16:14:13.626Z,4.90
2023-05-16T16:16:41.029Z,3.88
2023-05-16T16:19:11.785Z,6.18
2023-05-16T16:21:38.825Z,3.35
2023-05-16T16:24:06.000Z,5.20
2023-05-16T16:26:32.932Z,2.65
2023-05-16T16:29:00.023Z,2.90
2023-05-16T16:31:26.949Z,4.78
2023-05-16T16:33:54.769Z,3.50
2023-05-16T16:36:21.736Z,6.03
2023-05-16T16:38:48.933Z,6.13
2023-05-16T16:41:16.551Z,5.93
2023-05-16T16:43:43.526Z,7.93
2023-05-16T16:46:10.707Z,5.80
2023-05-16T16:48:37.767Z,2.28
2023-05-16T16:51:04.752Z,5.68
2023-05-16T16:53:33.686Z,4.97
2023-05-16T16:56:00.463Z,6.05
2023-05-16T16:58:27.344Z,9.55
2023-05-16T17:00:54.385Z,4.15
2023-05-16T17:03:21.856Z,4.75
2023-05-16T17:05:48.713Z,4.78
2023-05-16T17:08:15.661Z,6.40
2023-05-16T17:10:43.139Z,5.90
2023-05-16T17:13:12.219Z,4.85
2023-05-16T17:15:39.264Z,6.30
2023-05-16T17:18:09.300Z,4.63
2023-05-16T17:20:36.601Z,4.15
2023-05-16T17:23:04.213Z,5.40
2023-05-16T17:25:31.236Z,6.20
2023-05-16T17:27:58.275Z,5.25
2023-05-16T17:30:26.258Z,5.35
2023-05-16T17:32:54.157Z,5.07
2023-05-16T17:35:21.200Z,9.05
2023-05-16T17:37:48.093Z,5.93
2023-05-16T17:40:17.210Z,6.60
2023-05-16T17:42:45.257Z,6.28
2023-05-16T17:45:13.737Z,7.43
2023-05-16T17:47:43.191Z,6.82
2023-05-16T17:50:10.596Z,6.32
2023-05-16T17:52:40.615Z,8.18
2023-05-16T17:55:09.296Z,9.40
2023-05-16T17:57:36.187Z,5.32
2023-05-16T18:00:05.750Z,7.97
2023-05-16T18:02:32.751Z,7.28
2023-05-16T18:05:02.562Z,3.72
2023-05-16T18:07:29.322Z,10.18
2023-05-16T18:09:56.026Z,2.45
2023-05-16T18:12:23.018Z,4.28
2023-05-16T18:14:50.468Z,6.05
2023-05-16T18:17:17.373Z,4.93
2023-05-16T18:19:44.351Z,7.20
2023-05-16T18:22:12.431Z,5.03
2023-05-16T18:24:39.954Z,9.05
2023-05-16T18:27:07.138Z,13.18
2023-05-16T18:29:36.183Z,4.32
2023-05-16T18:32:04.183Z,6.53
2023-05-16T18:34:31.513Z,6.72
2023-05-16T18:36:58.737Z,5.03
2023-05-16T18:39:25.920Z,5.03
2023-05-16T18:41:55.971Z,9.25
2023-05-16T18:44:25.209Z,5.40
2023-05-16T18:46:52.407Z,5.45
2023-05-16T18:49:19.309Z,6.65
2023-05-16T18:51:46.212Z,8.23
2023-05-16T18:54:13.059Z,8.73
2023-05-16T18:56:39.858Z,7.10
2023-05-16T18:59:06.957Z,9.90
2023-05-16T19:01:34.072Z,8.35
2023-05-16T19:04:01.298Z,5.85
2023-05-16T19:06:28.367Z,9.32
2023-05-16T19:08:55.365Z,9.15
2023-05-16T19:11:22.907Z,8.13
2023-05-16T19:13:51.180Z,7.72
2023-05-16T19:16:24.521Z,10.10
2023-05-16T19:18:53.897Z,8.63
2023-05-16T19:21:21.231Z,10.10
2023-05-16T19:23:52.422Z,14.13
2023-05-16T19:26:28.976Z,11.50
2023-05-16T19:28:56.926Z,11.07
2023-05-16T19:31:24.028Z,11.40
2023-05-16T19:33:51.906Z,6.72
2023-05-16T19:36:21.954Z,9.27
2023-05-16T19:38:49.227Z,8.35
2023-05-16T19:41:16.533Z,7.63
2023-05-16T19:43:43.589Z,11.40
2023-05-16T19:46:10.653Z,10.77
2023-05-16T19:48:38.105Z,9.13
2023-05-16T19:51:11.859Z,9.70
2023-05-16T19:53:50.688Z,10.02
2023-05-16T19:56:19.938Z,10.90
2023-05-16T19:58:50.859Z,10.43
2023-05-16T20:01:17.963Z,12.63
2023-05-16T20:03:45.262Z,11.98
2023-05-16T20:06:12.304Z,9.50
2023-05-16T20:08:39.825Z,17.85
2023-05-16T20:11:06.784Z,11.25
2023-05-16T20:13:33.943Z,14.07
2023-05-16T20:16:01.095Z,9.60
2023-05-16T20:18:28.209Z,13.52
2023-05-16T20:20:56.837Z,8.57
2023-05-16T20:23:26.440Z,14.20
2023-05-16T20:25:53.198Z,11.38
2023-05-16T20:28:19.941Z,17.38
2023-05-16T20:30:46.954Z,9.65
2023-05-16T20:33:16.943Z,17.77
2023-05-16T20:35:43.721Z,21.40
2023-05-16T20:38:10.684Z,15.30
2023-05-16T20:40:37.960Z,16.65
2023-05-16T20:43:04.777Z,17.17
2023-05-16T20:45:31.757Z,13.48
2023-05-16T20:47:58.606Z,13.45
2023-05-16T20:50:27.438Z,16.52
2023-05-16T20:52:54.337Z,13.63
2023-05-16T20:55:21.474Z,18.10
2023-05-16T20:57:48.551Z,13.57
2023-05-16T21:00:15.923Z,8.25
2023-05-16T21:02:42.811Z,11.45
2023-05-16T21:05:23.890Z,14.38
2023-05-16T21:07:52.078Z,14.27
2023-05-16T21:10:18.961Z,15.95
2023-05-16T21:12:45.974Z,16.77
2023-05-16T21:15:12.882Z,12.52
2023-05-16T21:17:40.879Z,16.50
2023-05-16T21:20:08.626Z,9.90
2023-05-16T21:22:35.752Z,13.57
2023-05-16T21:25:02.640Z,13.45
2023-05-16T21:27:29.587Z,9.55
2023-05-16T21:29:56.409Z,15.02
2023-05-16T21:32:23.317Z,14.20
2023-05-16T21:34:50.180Z,16.65
2023-05-16T21:37:17.270Z,11.82
2023-05-16T21:39:44.103Z,11.77
2023-05-16T21:42:11.004Z,13.90
2023-05-16T21:44:37.810Z,12.48
2023-05-16T21:47:06.270Z,17.17
2023-05-16T21:49:34.678Z,14.88
2023-05-16T21:52:01.664Z,11.27
2023-05-16T21:54:28.691Z,15.35
2023-05-16T21:56:55.590Z,13.30
2023-05-16T21:59:22.413Z,15.40
2023-05-16T22:01:49.246Z,18.85
2023-05-16T22:04:16.482Z,14.32
2023-05-16T22:06:43.519Z,14.10
2023-05-16T22:09:11.678Z,16.92
2023-05-16T22:11:38.569Z,10.63
2023-05-16T22:14:05.818Z,11.75
2023-05-16T22:16:32.779Z,16.50
2023-05-16T22:18:59.937Z,12.73
2023-05-16T22:21:29.605Z,13.90
2023-05-16T22:23:59.398Z,16.40
2023-05-16T22:26:26.213Z,11.68
2023-05-16T22:28:53.111Z,13.70
2023-05-16T22:31:19.962Z,12.68
2023-05-16T22:33:47.119Z,13.48
2023-05-16T22:36:13.968Z,12.90
2023-05-16T22:38:40.952Z,19.20
2023-05-16T22:41:07.876Z,18.10
2023-05-16T22:43:34.904Z,12.93
2023-05-16T22:46:03.275Z,15.93
2023-05-16T22:48:30.556Z,17.15
2023-05-16T22:50:59.052Z,12.57
2023-05-16T22:53:26.036Z,19.00
2023-05-16T22:55:52.933Z,13.30
2023-05-16T22:58:20.140Z,18.60
2023-05-16T23:00:47.016Z,21.38
2023-05-16T23:03:14.015Z,20.35
2023-05-16T23:05:41.252Z,21.73
2023-05-16T23:08:08.372Z,17.80
2023-05-16T23:10:36.616Z,19.98
2023-05-16T23:13:03.506Z,18.33
2023-05-16T23:15:30.758Z,21.85
2023-05-16T23:17:57.930Z,15.15
2023-05-16T23:20:24.872Z,20.45
2023-05-16T23:22:51.804Z,18.75
2023-05-16T23:25:20.667Z,15.75
2023-05-16T23:27:47.519Z,22.95
2023-05-16T23:30:14.997Z,13.27
2023-05-16T23:32:42.053Z,19.55
2023-05-16T23:35:09.148Z,18.77
2023-05-16T23:37:36.108Z,18.13
2023-05-16T23:40:03.403Z,24.58
2023-05-16T23:42:30.328Z,16.13
2023-05-16T23:44:57.142Z,15.43
2023-05-16T23:47:24.057Z,17.52
2023-05-16T23:49:50.881Z,19.67
2023-05-16T23:52:17.833Z,12.52
2023-05-16T23:54:57.706Z,16.13
2023-05-16T23:57:24.520Z,22.90
2023-05-16T23:59:52.758Z,11.75
